Time;durP1;ratioP1;P1;durP2;ratioP2;P2;SDS_P1;SDS_P2;PMS_P1;PMS_P2;Temp;Humidity;BMP_temperature;BMP_pressure;BME280_temperature;BME280_humidity;BME280_pressure;Samples;Min_cycle;Max_cycle;Signal;HPM_P1;HPM_P2
2022/10/30 00:00:47;;;;;;;;;3.00;2.00;;;;;17.95;58.41;98937.13;4935413;28;101984;-57
2022/10/30 00:03:14;;;;;;;;;5.00;3.33;;;;;17.96;58.41;98940.69;4935701;28;102012;-58
2022/10/30 00:05:47;;;;;;;;;3.00;3.00;;;;;17.95;58.49;98941.75;4939073;28;102199;-57
2022/10/30 00:08:16;;;;;;;;;2.33;2.33;;;;;17.95;58.88;98948.06;4939411;28;104037;-58
2022/10/30 00:10:44;;;;;;;;;2.00;2.00;;;;;17.96;59.05;98957.09;4940908;28;102141;-58
2022/10/30 00:13:12;;;;;;;;;3.00;2.00;;;;;17.95;58.47;98964.47;4945098;28;103108;-58
2022/10/30 00:15:46;;;;;;;;;3.00;3.00;;;;;17.95;58.71;98974.59;4939795;28;102326;-58
2022/10/30 00:18:13;;;;;;;;;2.00;2.00;;;;;17.94;59.01;98972.91;4937184;28;104179;-58
2022/10/30 00:20:40;;;;;;;;;2.33;2.33;;;;;17.94;58.91;98984.69;4941895;28;102291;-57
2022/10/30 00:23:07;;;;;;;;;1.67;1.67;;;;;17.94;58.42;98967.44;4943162;28;101939;-58
2022/10/30 00:25:35;;;;;;;;;2.00;2.00;;;;;17.92;58.07;98964.94;4946653;28;102375;-58
2022/10/30 00:28:06;;;;;;;;;3.00;3.00;;;;;17.96;58.02;98970.78;4939332;28;108674;-58
2022/10/30 00:30:34;;;;;;;;;2.00;2.00;;;;;17.94;58.39;98951.03;4940487;28;102269;-58
2022/10/30 00:33:02;;;;;;;;;3.00;2.67;;;;;17.92;58.54;98948.53;4945892;28;101917;-58
2022/10/30 00:35:29;;;;;;;;;4.00;4.00;;;;;17.92;58.88;98955.91;4942814;28;102300;-58
2022/10/30 00:37:56;;;;;;;;;2.67;2.67;;;;;17.93;58.11;98968.50;4944107;28;103999;-58
2022/10/30 00:40:23;;;;;;;;;3.00;2.00;;;;;17.93;58.89;98949.34;4942684;28;102205;-58
2022/10/30 00:42:50;;;;;;;;;2.67;2.67;;;;;17.92;58.01;98964.13;4937947;28;102445;-58
2022/10/30 00:45:18;;;;;;;;;3.00;3.00;;;;;17.92;58.18;98958.66;4941656;28;102305;-58
2022/10/30 00:47:56;;;;;;;;;3.00;3.00;;;;;17.92;58.96;98958.66;4938961;28;103990;-57
2022/10/30 00:50:24;;;;;;;;;2.67;2.67;;;;;17.91;58.76;98957.81;4950360;28;102208;-58
2022/10/30 00:53:05;;;;;;;;;3.00;3.00;;;;;17.91;58.72;98959.72;4950815;28;102109;-58
2022/10/30 00:55:42;;;;;;;;;3.00;3.00;;;;;17.91;58.03;98948.78;4946481;28;102126;-58
2022/10/30 00:58:14;;;;;;;;;4.00;4.00;;;;;17.90;58.26;98945.19;4941576;28;108878;-58
2022/10/30 01:00:47;;;;;;;;;3.00;3.00;;;;;17.91;58.34;98946.88;4950592;28;101774;-57
2022/10/30 01:03:15;;;;;;;;;3.00;3.00;;;;;17.91;58.71;98935.94;4937586;28;102219;-58
2022/10/30 01:05:47;;;;;;;;;2.33;2.33;;;;;17.91;58.75;98941.41;4947172;28;102045;-58
2022/10/30 01:08:14;;;;;;;;;4.00;3.00;;;;;17.90;58.48;98934.25;4946168;28;104031;-58
2022/10/30 01:10:41;;;;;;;;;3.00;2.67;;;;;17.90;58.08;98944.38;4937269;28;101957;-57
2022/10/30 01:13:10;;;;;;;;;3.00;3.00;;;;;17.90;58.31;98949.84;4936033;28;102121;-58
2022/10/30 01:15:48;;;;;;;;;4.00;2.33;;;;;17.90;58.82;98938.91;4939028;28;102375;-58
2022/10/30 01:18:25;;;;;;;;;2.00;2.00;;;;;17.89;58.44;98929.84;4937002;28;104007;-57
2022/10/30 01:21:10;;;;;;;;;3.00;2.00;;;;;17.88;58.27;98919.97;4944280;28;102144;-58
2022/10/30 01:23:55;;;;;;;;;3.33;3.00;;;;;17.89;58.51;98929.84;4932796;28;102148;-58
2022/10/30 01:26:41;;;;;;;;;4.00;4.00;;;;;17.88;58.09;98924.66;4940292;28;102146;-58
2022/10/30 01:29:36;;;;;;;;;4.00;3.00;;;;;17.88;58.58;98930.13;4935559;28;109001;-57
2022/10/30 01:32:24;;;;;;;;;3.00;2.00;;;;;17.87;58.21;98923.81;4939981;28;102184;-57
2022/10/30 01:35:05;;;;;;;;;3.00;3.00;;;;;17.87;58.86;98926.53;4940671;28;102286;-57
2022/10/30 01:37:41;;;;;;;;;2.00;2.00;;;;;17.88;58.96;98935.59;4937658;28;101981;-58
2022/10/30 01:40:12;;;;;;;;;4.00;3.00;;;;;17.87;58.88;98928.44;4938820;28;108735;-58
2022/10/30 01:42:51;;;;;;;;;2.00;2.00;;;;;17.87;58.58;98950.34;4948158;28;102031;-58
2022/10/30 01:45:54;;;;;;;;;4.67;3.33;;;;;17.87;58.32;98955.81;4935258;28;102304;-58
2022/10/30 01:48:33;;;;;;;;;3.33;3.00;;;;;17.86;57.97;98954.13;4934488;28;102224;-58
2022/10/30 01:51:06;;;;;;;;;3.33;3.00;;;;;17.86;58.02;98933.09;4937897;28;104028;-57
2022/10/30 01:53:52;;;;;;;;;4.00;3.00;;;;;17.86;57.89;98937.72;4948369;28;102286;-58
2022/10/30 01:56:38;;;;;;;;;5.00;4.00;;;;;17.84;57.88;98938.78;4938583;28;102135;-58
2022/10/30 01:59:16;;;;;;;;;2.00;2.00;;;;;17.85;58.55;98936.88;4939387;28;102276;-57
2022/10/30 02:01:44;;;;;;;;;2.00;2.00;;;;;17.84;58.82;98936.03;4933270;28;108696;-58
2022/10/30 02:04:13;;;;;;;;;3.67;3.00;;;;;17.84;58.26;98938.78;4938060;28;102051;-57
2022/10/30 02:06:45;;;;;;;;;2.33;2.33;;;;;17.85;58.70;98947.81;4945002;28;101933;-58
2022/10/30 02:09:40;;;;;;;;;2.33;2.33;;;;;17.83;58.94;98948.06;4937151;28;102011;-58
2022/10/30 02:12:26;;;;;;;;;2.67;2.67;;;;;17.83;58.20;98944.50;4935066;28;108463;-58
2022/10/30 02:15:13;;;;;;;;;3.00;3.00;;;;;17.83;58.79;98936.31;4938845;28;102385;-58
2022/10/30 02:18:05;;;;;;;;;3.00;3.00;;;;;17.82;58.53;98932.72;4914689;28;102453;-58
2022/10/30 02:20:51;;;;;;;;;3.67;3.00;;;;;17.83;58.30;98936.31;4942351;28;102265;-58
2022/10/30 02:23:38;;;;;;;;;2.00;2.00;;;;;17.83;58.88;98945.31;4946982;28;103221;-58
2022/10/30 02:26:15;;;;;;;;;2.00;2.00;;;;;17.83;58.56;98928.91;4924865;28;101967;-57
2022/10/30 02:28:42;;;;;;;;;2.00;2.00;;;;;17.82;58.08;98932.72;4949527;28;101666;-57
2022/10/30 02:31:08;;;;;;;;;1.33;1.33;;;;;17.82;58.29;98943.69;4938440;28;102145;-58
2022/10/30 02:33:35;;;;;;;;;2.00;2.00;;;;;17.82;58.65;98940.94;4937164;28;103508;-58
2022/10/30 02:36:02;;;;;;;;;3.33;3.00;;;;;17.81;58.84;98924.75;4943690;28;102375;-58
2022/10/30 02:38:30;;;;;;;;;3.00;2.00;;;;;17.81;57.96;98914.66;4936184;28;102324;-58
2022/10/30 02:40:57;;;;;;;;;3.00;3.00;;;;;17.81;58.84;98917.38;4937177;28;102132;-58
2022/10/30 02:43:24;;;;;;;;;2.00;2.00;;;;;17.80;58.31;98910.25;4947763;28;103732;-57
2022/10/30 02:45:51;;;;;;;;;3.00;2.00;;;;;17.81;58.58;98914.66;4943054;28;102602;-58
2022/10/30 02:48:18;;;;;;;;;3.00;3.00;;;;;17.80;58.44;98912.97;4932242;28;101967;-57
2022/10/30 02:50:45;;;;;;;;;3.00;2.33;;;;;17.81;58.05;98906.44;4943961;28;102151;-58
2022/10/30 02:53:12;;;;;;;;;2.00;1.00;;;;;17.80;58.92;98921.19;4937908;28;104014;-58
2022/10/30 02:55:39;;;;;;;;;3.00;3.00;;;;;17.81;58.02;98913.81;4928016;28;101964;-57
2022/10/30 02:58:05;;;;;;;;;3.00;3.00;;;;;17.81;58.36;98920.13;4939932;28;102306;-58
2022/10/30 03:00:32;;;;;;;;;1.00;1.00;;;;;17.80;58.32;98921.19;4943734;28;102394;-58
2022/10/30 03:02:59;;;;;;;;;3.00;3.00;;;;;17.80;58.55;98923.09;4943391;28;104194;-58
2022/10/30 03:05:26;;;;;;;;;3.00;3.00;;;;;17.80;58.82;98928.56;4939427;28;102241;-58
2022/10/30 03:07:53;;;;;;;;;4.00;3.00;;;;;17.80;58.57;98928.56;4937492;28;106580;-58
2022/10/30 03:10:21;;;;;;;;;2.00;2.00;;;;;17.79;58.93;98927.72;4937360;28;102402;-57
2022/10/30 03:12:48;;;;;;;;;2.00;2.00;;;;;17.78;58.87;98926.09;4935898;28;104038;-58
2022/10/30 03:15:15;;;;;;;;;4.00;3.00;;;;;17.79;58.36;98930.47;4941160;28;102005;-57
2022/10/30 03:17:42;;;;;;;;;2.33;2.33;;;;;17.79;58.46;98927.72;4942017;28;102275;-57
2022/10/30 03:20:09;;;;;;;;;2.00;2.00;;;;;17.78;58.35;98934.28;4946629;28;102249;-58
2022/10/30 03:22:36;;;;;;;;;3.33;3.00;;;;;17.78;58.77;98928.81;4941671;28;104004;-58
2022/10/30 03:25:04;;;;;;;;;5.00;4.00;;;;;17.78;58.44;98931.56;4935006;28;102160;-58
2022/10/30 03:27:30;;;;;;;;;5.00;3.67;;;;;17.79;58.38;98926.88;4931669;28;102201;-58
2022/10/30 03:29:57;;;;;;;;;2.00;2.00;;;;;17.78;58.85;98926.09;4941729;28;101945;-58
2022/10/30 03:32:24;;;;;;;;;2.67;2.00;;;;;17.78;58.90;98942.50;4944775;28;104057;-57
2022/10/30 03:34:51;;;;;;;;;2.33;2.00;;;;;17.80;58.36;98931.28;4939855;28;102214;-57
2022/10/30 03:37:18;;;;;;;;;4.00;4.00;;;;;17.78;58.29;98926.09;4942203;28;102356;-58
2022/10/30 03:39:45;;;;;;;;;3.67;3.67;;;;;17.78;58.79;98928.81;4936956;28;102070;-58
2022/10/30 03:42:12;;;;;;;;;2.67;2.67;;;;;17.77;57.96;98935.34;4935609;28;104188;-58
2022/10/30 03:44:39;;;;;;;;;3.00;2.00;;;;;17.75;58.14;98929.28;4937580;28;102317;-58
2022/10/30 03:47:06;;;;;;;;;4.00;4.00;;;;;17.75;57.98;98932.00;4944375;28;102432;-57
2022/10/30 03:49:33;;;;;;;;;2.33;2.33;;;;;17.77;58.39;98946.28;4933608;28;103174;-57
2022/10/30 03:51:59;;;;;;;;;3.00;2.67;;;;;17.76;58.80;98930.94;4942614;28;104183;-58
2022/10/30 03:54:26;;;;;;;;;2.00;2.00;;;;;17.76;58.07;98933.69;4937088;28;102127;-57
2022/10/30 03:56:53;;;;;;;;;2.00;2.00;;;;;17.75;58.28;98929.28;4937053;28;110754;-58
2022/10/30 03:59:20;;;;;;;;;3.67;3.00;;;;;17.75;57.95;98925.69;4942342;28;103343;-58
2022/10/30 04:01:47;;;;;;;;;2.33;2.33;;;;;17.75;58.75;98918.34;4937940;28;104019;-58
2022/10/30 04:04:14;;;;;;;;;3.33;3.00;;;;;17.74;58.37;98913.94;4938234;28;102070;-58
2022/10/30 04:06:41;;;;;;;;;2.00;2.00;;;;;17.75;58.18;98917.50;4938953;28;102951;-58
2022/10/30 04:09:08;;;;;;;;;4.00;2.00;;;;;17.76;58.65;98920.00;4942056;28;106496;-58
2022/10/30 04:11:35;;;;;;;;;3.33;3.33;;;;;17.74;58.73;98907.66;4946298;28;108824;-58
2022/10/30 04:14:02;;;;;;;;;3.67;3.00;;;;;17.75;58.47;98907.38;4943059;28;102121;-58
2022/10/30 04:16:29;;;;;;;;;4.00;3.00;;;;;17.73;58.72;98912.28;4946469;28;102150;-58
2022/10/30 04:18:56;;;;;;;;;3.00;3.00;;;;;17.74;58.37;98908.47;4937991;28;102140;-58
2022/10/30 04:21:22;;;;;;;;;4.67;3.00;;;;;17.74;58.21;98902.97;4947249;28;104130;-58
2022/10/30 04:23:49;;;;;;;;;2.00;2.00;;;;;17.74;58.75;98908.47;4927241;28;102324;-58
2022/10/30 04:26:16;;;;;;;;;3.00;3.00;;;;;17.74;58.07;98902.19;4944288;28;102057;-57
2022/10/30 04:28:43;;;;;;;;;2.00;2.00;;;;;17.73;58.82;98909.56;4943920;28;102150;-57
2022/10/30 04:31:10;;;;;;;;;3.00;3.00;;;;;17.73;58.00;98925.97;4933409;28;104007;-58
2022/10/30 04:33:37;;;;;;;;;2.00;1.33;;;;;17.74;58.26;98935.81;4939961;28;102100;-57
2022/10/30 04:36:04;;;;;;;;;4.00;4.00;;;;;17.73;58.15;98934.16;4945607;28;102032;-57
2022/10/30 04:38:31;;;;;;;;;3.33;3.33;;;;;17.73;58.21;98945.09;4934637;28;102335;-57
2022/10/30 04:40:58;;;;;;;;;3.00;3.00;;;;;17.73;58.43;98939.63;4937857;28;104045;-58
2022/10/30 04:43:25;;;;;;;;;4.00;3.00;;;;;17.73;58.83;98936.06;4932047;28;102161;-58
2022/10/30 04:45:52;;;;;;;;;2.67;2.67;;;;;17.73;58.86;98930.59;4939104;28;102175;-58
2022/10/30 04:48:19;;;;;;;;;2.00;2.00;;;;;17.72;58.62;98932.50;4936987;28;101952;-58
2022/10/30 04:50:46;;;;;;;;;3.00;2.67;;;;;17.73;58.92;98934.16;4939460;28;104088;-58
2022/10/30 04:53:15;;;;;;;;;4.00;3.00;;;;;17.73;57.99;98927.88;4949346;28;102082;-58
2022/10/30 04:55:43;;;;;;;;;4.67;4.00;;;;;17.72;58.28;98929.75;4945117;28;102202;-57
2022/10/30 04:58:11;;;;;;;;;3.00;3.00;;;;;17.72;58.21;98931.66;4951066;28;103970;-58
2022/10/30 05:00:38;;;;;;;;;2.00;2.00;;;;;17.72;58.33;98934.41;4945388;28;103904;-57
2022/10/30 05:03:05;;;;;;;;;2.33;2.33;;;;;17.71;58.42;98930.81;4944812;28;102177;-58
2022/10/30 05:05:32;;;;;;;;;4.00;3.00;;;;;17.72;57.85;98926.19;4938941;28;102228;-58
2022/10/30 05:07:59;;;;;;;;;2.00;2.00;;;;;17.71;58.80;98932.72;4938168;28;101984;-58
2022/10/30 05:10:27;;;;;;;;;4.00;3.00;;;;;17.71;58.01;98933.56;4942573;28;104269;-58
2022/10/30 05:12:53;;;;;;;;;2.00;2.00;;;;;17.71;58.01;98936.28;4940299;28;102021;-57
2022/10/30 05:15:20;;;;;;;;;2.67;2.33;;;;;17.71;58.21;98936.28;4940788;28;101783;-57
2022/10/30 05:17:54;;;;;;;;;3.00;3.00;;;;;17.70;58.18;98931.88;4938098;28;101961;-57
2022/10/30 05:20:22;;;;;;;;;2.00;2.00;;;;;17.70;58.28;98929.16;4941344;28;103785;-57
2022/10/30 05:22:56;;;;;;;;;3.00;2.33;;;;;17.69;58.00;98930.25;4942861;28;104093;-58
2022/10/30 05:25:24;;;;;;;;;2.00;2.00;;;;;17.70;58.26;98929.16;4941843;28;101947;-57
2022/10/30 05:28:00;;;;;;;;;3.67;3.00;;;;;17.70;58.75;98922.84;4940340;28;102101;-57
2022/10/30 05:30:28;;;;;;;;;3.33;2.00;;;;;17.70;58.18;98929.16;4941232;28;104004;-58
2022/10/30 05:33:03;;;;;;;;;2.67;2.33;;;;;17.70;57.88;98934.63;4945445;28;101934;-57
2022/10/30 05:35:34;;;;;;;;;3.00;3.00;;;;;17.70;58.53;98936.53;4935675;28;102238;-58
2022/10/30 05:38:03;;;;;;;;;2.00;1.00;;;;;17.70;57.92;98933.78;4935323;28;102615;-58
2022/10/30 05:40:31;;;;;;;;;3.33;3.00;;;;;17.70;58.85;98929.16;4939923;28;104042;-57
2022/10/30 05:42:59;;;;;;;;;3.00;2.33;;;;;17.69;58.86;98924.78;4935493;28;101839;-57
2022/10/30 05:45:26;;;;;;;;;3.00;3.00;;;;;17.69;58.64;98923.94;4936461;28;102059;-58
2022/10/30 05:47:58;;;;;;;;;3.00;3.00;;;;;17.69;58.78;98924.78;4941852;28;102709;-57
2022/10/30 05:50:27;;;;;;;;;3.67;3.67;;;;;17.69;58.79;98930.25;4939230;28;104163;-58
2022/10/30 05:53:01;;;;;;;;;3.00;2.33;;;;;17.68;58.90;98925.84;4933401;28;102241;-57
2022/10/30 05:55:28;;;;;;;;;3.00;3.00;;;;;17.68;58.79;98939.53;4936292;28;102350;-57
2022/10/30 05:58:00;;;;;;;;;4.00;4.00;;;;;17.68;58.14;98942.25;4942626;28;102201;-57
2022/10/30 06:00:29;;;;;;;;;3.00;3.00;;;;;17.68;58.49;98950.47;4940443;28;104234;-58
2022/10/30 06:03:09;;;;;;;;;1.00;1.00;;;;;17.68;58.39;98942.25;4938434;28;102259;-58
2022/10/30 06:05:36;;;;;;;;;2.00;2.00;;;;;17.68;58.72;98939.53;4938321;28;102142;-58
2022/10/30 06:08:05;;;;;;;;;2.67;2.67;;;;;17.69;58.49;98943.94;4940613;28;102330;-58
2022/10/30 06:10:32;;;;;;;;;2.00;2.00;;;;;17.69;57.94;98954.88;4941339;28;103962;-57
2022/10/30 06:13:02;;;;;;;;;3.00;3.00;;;;;17.69;58.74;98957.59;4936872;28;102165;-58
2022/10/30 06:15:30;;;;;;;;;3.00;3.00;;;;;17.69;58.76;98948.56;4940537;28;102363;-58
2022/10/30 06:17:57;;;;;;;;;4.00;4.00;;;;;17.67;58.18;98951.53;4942240;28;102371;-58
2022/10/30 06:20:28;;;;;;;;;2.00;2.00;;;;;17.69;58.58;98943.09;4939045;28;104382;-58
2022/10/30 06:23:04;;;;;;;;;3.00;3.00;;;;;17.68;58.93;98947.72;4944375;28;102062;-58
2022/10/30 06:25:33;;;;;;;;;5.33;4.00;;;;;17.68;58.78;98936.78;4938081;28;102424;-57
2022/10/30 06:28:07;;;;;;;;;3.67;3.00;;;;;17.67;58.54;98939.75;4936999;28;102390;-57
2022/10/30 06:30:33;;;;;;;;;3.00;2.00;;;;;17.68;58.53;98944.16;4935525;28;104010;-58
2022/10/30 06:33:02;;;;;;;;;4.00;2.33;;;;;17.66;57.94;98944.38;4939550;28;102169;-58
2022/10/30 06:35:30;;;;;;;;;3.67;3.00;;;;;17.67;58.10;98946.06;4938404;28;102209;-57
2022/10/30 06:38:00;;;;;;;;;3.00;3.00;;;;;17.67;58.52;98951.53;4936319;28;102168;-58
2022/10/30 06:40:31;;;;;;;;;3.67;3.67;;;;;17.67;57.89;98946.06;4935081;28;104135;-58
2022/10/30 06:42:58;;;;;;;;;3.00;3.00;;;;;17.67;58.44;98943.31;4942402;28;102169;-57
2022/10/30 06:45:25;;;;;;;;;4.67;3.00;;;;;17.67;58.28;98948.78;4942497;28;102313;-58
2022/10/30 06:47:52;;;;;;;;;2.67;2.00;;;;;17.67;58.85;98957.00;4941381;28;102005;-58
2022/10/30 06:50:20;;;;;;;;;4.00;3.00;;;;;17.67;57.96;98953.41;4936218;28;104075;-58
2022/10/30 06:52:48;;;;;;;;;3.00;2.00;;;;;17.67;58.54;98951.53;4945134;28;102282;-58
2022/10/30 06:55:15;;;;;;;;;3.00;3.00;;;;;17.67;58.47;98957.00;4951596;28;102050;-58
2022/10/30 06:57:42;;;;;;;;;3.00;3.00;;;;;17.67;58.31;98950.69;4944252;28;102246;-57
2022/10/30 07:00:10;;;;;;;;;3.33;3.33;;;;;17.67;58.64;98954.25;4937976;28;103970;-57
2022/10/30 07:02:37;;;;;;;;;4.00;3.67;;;;;17.66;58.01;98963.53;4937671;28;102279;-58
2022/10/30 07:05:04;;;;;;;;;3.00;3.00;;;;;17.68;58.00;98957.81;4948745;28;102337;-57
2022/10/30 07:07:31;;;;;;;;;4.00;4.00;;;;;17.67;58.58;98965.19;4936386;28;102303;-58
2022/10/30 07:09:58;;;;;;;;;3.67;3.00;;;;;17.67;58.29;98962.47;4936658;28;104142;-57
2022/10/30 07:12:25;;;;;;;;;3.67;3.67;;;;;17.68;58.49;98957.81;4941264;28;101932;-58
2022/10/30 07:14:52;;;;;;;;;2.00;2.00;;;;;17.67;58.14;98961.63;4944361;28;102358;-58
2022/10/30 07:17:20;;;;;;;;;3.33;2.67;;;;;17.67;58.08;98965.19;4950443;28;102269;-58
2022/10/30 07:19:47;;;;;;;;;2.00;2.00;;;;;17.67;58.62;98956.16;4934832;28;104187;-58
2022/10/30 07:22:14;;;;;;;;;6.33;4.00;;;;;17.67;58.44;98957.00;4945407;28;101948;-58
2022/10/30 07:24:40;;;;;;;;;4.00;4.00;;;;;17.68;58.42;98960.56;4941649;28;101944;-57
2022/10/30 07:27:07;;;;;;;;;2.33;2.33;;;;;17.67;58.03;98967.94;4942928;28;102013;-58
2022/10/30 07:29:34;;;;;;;;;3.00;2.00;;;;;17.67;57.90;98967.94;4945354;28;104057;-57
2022/10/30 07:32:01;;;;;;;;;3.00;3.00;;;;;17.68;58.75;98974.25;4946582;28;102227;-58
2022/10/30 07:34:29;;;;;;;;;2.67;2.67;;;;;17.68;58.18;98969.59;4931087;28;102018;-57
2022/10/30 07:36:56;;;;;;;;;4.00;4.00;;;;;17.69;58.63;98976.75;4922178;28;106800;-57
2022/10/30 07:39:24;;;;;;;;;3.00;3.00;;;;;17.68;58.61;98966.88;4921072;28;103427;-57
2022/10/30 07:41:51;;;;;;;;;3.00;3.00;;;;;17.69;58.41;98964.97;4917407;28;102143;-57
2022/10/30 07:44:17;;;;;;;;;4.00;3.00;;;;;17.67;58.72;98959.72;4920734;28;101775;-58
2022/10/30 07:46:44;;;;;;;;;2.00;2.00;;;;;17.68;58.27;98960.56;4922834;28;102215;-58
2022/10/30 07:49:11;;;;;;;;;3.00;3.00;;;;;17.70;58.72;98966.63;4920402;28;108462;-57
2022/10/30 07:51:38;;;;;;;;;3.33;3.00;;;;;17.69;57.84;98957.59;4919866;28;102215;-58
2022/10/30 07:54:05;;;;;;;;;2.33;2.00;;;;;17.69;58.46;98960.34;4919188;28;102840;-58
2022/10/30 07:56:32;;;;;;;;;3.00;3.00;;;;;17.70;58.44;98961.97;4921501;28;102125;-57
2022/10/30 07:58:59;;;;;;;;;4.00;3.67;;;;;17.69;58.28;98954.88;4917850;28;104040;-57
2022/10/30 08:01:26;;;;;;;;;3.33;3.00;;;;;17.69;58.40;98954.03;4918166;28;101963;-57
2022/10/30 08:03:53;;;;;;;;;4.00;3.00;;;;;17.70;58.77;98964.72;4920147;28;102347;-57
2022/10/30 08:06:20;;;;;;;;;4.67;2.67;;;;;17.70;57.94;98958.41;4920929;28;102087;-58
2022/10/30 08:08:52;;;;;;;;;4.00;3.00;;;;;17.70;58.61;98951.03;4918361;28;104177;-57
2022/10/30 08:11:19;;;;;;;;;4.67;3.00;;;;;17.68;58.15;98953.19;4920581;28;102108;-58
2022/10/30 08:13:46;;;;;;;;;3.00;3.00;;;;;17.71;57.95;98954.59;4921815;28;102111;-57
2022/10/30 08:16:13;;;;;;;;;4.33;2.00;;;;;17.71;57.84;98957.34;4922050;28;102064;-57
2022/10/30 08:18:41;;;;;;;;;3.00;3.00;;;;;17.71;58.25;98949.97;4919466;28;103209;-58
2022/10/30 08:21:09;;;;;;;;;1.00;1.00;;;;;17.72;57.93;98948.91;4920355;28;102486;-57
2022/10/30 08:23:36;;;;;;;;;3.00;3.00;;;;;17.71;58.01;98951.88;4918761;28;102356;-57
2022/10/30 08:26:03;;;;;;;;;3.00;2.67;;;;;17.72;58.16;98948.06;4921789;28;102035;-57
2022/10/30 08:28:30;;;;;;;;;4.00;3.67;;;;;17.72;57.99;98939.88;4918710;28;104211;-57
2022/10/30 08:31:00;;;;;;;;;3.67;3.00;;;;;17.72;58.10;98937.97;4918728;28;102407;-57
2022/10/30 08:33:27;;;;;;;;;5.00;4.00;;;;;17.71;58.14;98941.78;4917251;28;102600;-57
2022/10/30 08:35:56;;;;;;;;;2.00;2.00;;;;;17.73;58.02;98944.28;4920150;28;102158;-58
2022/10/30 08:38:25;;;;;;;;;3.33;3.33;;;;;17.73;58.40;98945.09;4918888;28;104174;-57
2022/10/30 08:40:52;;;;;;;;;3.67;3.00;;;;;17.72;58.16;98945.34;4918986;28;102140;-58
2022/10/30 08:43:19;;;;;;;;;3.00;3.00;;;;;17.72;58.41;98932.50;4919587;28;101967;-57
2022/10/30 08:45:46;;;;;;;;;3.00;2.00;;;;;17.72;57.93;98931.66;4922555;28;102484;-58
2022/10/30 08:48:15;;;;;;;;;2.00;2.00;;;;;17.73;58.53;98925.97;4918240;28;108780;-58
2022/10/30 08:50:41;;;;;;;;;2.33;2.00;;;;;17.71;58.66;98911.69;4918066;28;102808;-58
2022/10/30 08:53:14;;;;;;;;;1.33;1.33;;;;;17.72;57.98;98913.34;4918752;28;101779;-58
2022/10/30 08:55:41;;;;;;;;;4.00;3.67;;;;;17.73;58.31;98904.09;4919344;28;102395;-57
2022/10/30 08:58:08;;;;;;;;;4.00;3.00;;;;;17.73;58.62;98917.75;4918276;28;103992;-57
2022/10/30 09:00:35;;;;;;;;;4.33;3.00;;;;;17.75;58.15;98909.28;4918701;28;101962;-57
2022/10/30 09:03:02;;;;;;;;;3.00;3.00;;;;;17.74;58.36;98911.19;4918207;28;102283;-58
2022/10/30 09:05:30;;;;;;;;;4.00;4.00;;;;;17.74;58.15;98913.94;4919788;28;102188;-57
2022/10/30 09:08:00;;;;;;;;;4.00;3.00;;;;;17.74;58.05;98908.47;4917687;28;104031;-57
2022/10/30 09:10:28;;;;;;;;;2.67;2.67;;;;;17.74;58.72;98908.47;4918635;28;102391;-58
2022/10/30 09:13:00;;;;;;;;;2.67;2.33;;;;;17.74;58.48;98908.47;4917959;28;103165;-58
2022/10/30 09:15:27;;;;;;;;;2.00;2.00;;;;;17.74;58.35;98905.72;4920293;28;101967;-57
2022/10/30 09:17:56;;;;;;;;;6.67;5.00;;;;;17.75;58.19;98904.66;4918091;28;104166;-58
2022/10/30 09:20:24;;;;;;;;;3.33;3.00;;;;;17.76;58.69;98903.59;4918424;28;102152;-57
2022/10/30 09:22:51;;;;;;;;;3.67;3.67;;;;;17.75;58.38;98904.66;4915493;28;102213;-57
2022/10/30 09:25:18;;;;;;;;;3.00;3.00;;;;;17.75;58.69;98893.72;4918936;28;102324;-58
2022/10/30 09:27:46;;;;;;;;;3.33;3.00;;;;;17.75;58.19;98899.19;4920713;28;104053;-58
2022/10/30 09:30:14;;;;;;;;;4.00;4.00;;;;;17.77;57.74;98898.97;4919663;28;102119;-57
2022/10/30 09:32:41;;;;;;;;;3.00;3.00;;;;;17.77;57.86;98897.06;4918796;28;101921;-57
2022/10/30 09:35:08;;;;;;;;;3.33;3.00;;;;;17.77;57.89;98897.06;4917896;28;102209;-57
2022/10/30 09:37:36;;;;;;;;;3.33;3.00;;;;;17.78;57.95;98903.38;4917619;28;104032;-57
2022/10/30 09:40:05;;;;;;;;;3.00;3.00;;;;;17.78;58.31;98904.19;4918185;28;102027;-57
2022/10/30 09:42:49;;;;;;;;;3.67;3.00;;;;;17.78;58.31;98906.94;4919533;28;102209;-58
2022/10/30 09:45:24;;;;;;;;;4.67;4.00;;;;;17.80;58.35;98906.69;4918549;28;102109;-58
2022/10/30 09:48:17;;;;;;;;;4.33;3.67;;;;;17.80;58.11;98902.03;4916390;28;110119;-58
2022/10/30 09:51:18;;;;;;;;;3.00;3.00;;;;;17.80;58.02;98907.50;4913271;28;101820;-58
2022/10/30 09:54:14;;;;;;;;;5.00;4.33;;;;;17.81;57.88;98913.81;4913248;28;103136;-58
2022/10/30 09:56:45;;;;;;;;;3.00;3.00;;;;;17.82;58.18;98905.38;4918442;28;102330;-57
2022/10/30 09:59:35;;;;;;;;;3.00;3.00;;;;;17.82;58.20;98910.84;4916900;28;108761;-58
2022/10/30 10:02:25;;;;;;;;;3.00;3.00;;;;;17.81;57.86;98906.44;4915248;28;102278;-58
2022/10/30 10:05:16;;;;;;;;;3.00;3.00;;;;;17.82;58.21;98905.38;4915647;28;104584;-57
2022/10/30 10:07:49;;;;;;;;;5.00;5.00;;;;;17.82;58.06;98897.16;4908329;28;102199;-57
2022/10/30 10:10:45;;;;;;;;;3.00;3.00;;;;;17.83;58.32;98896.06;4917247;28;108589;-57
2022/10/30 10:13:44;;;;;;;;;4.67;3.00;;;;;17.83;58.50;98896.06;4917337;28;102376;-57
2022/10/30 10:16:20;;;;;;;;;2.00;2.00;;;;;17.84;58.52;98894.19;4884110;28;102275;-57
2022/10/30 10:18:55;;;;;;;;;3.33;2.67;;;;;17.85;58.25;98895.84;4916597;28;110037;-57
2022/10/30 10:21:27;;;;;;;;;3.00;3.00;;;;;17.86;57.85;98891.22;4914812;28;108668;-58
2022/10/30 10:24:00;;;;;;;;;4.00;4.00;;;;;17.87;57.66;98892.88;4917428;28;102249;-57
2022/10/30 10:26:29;;;;;;;;;4.00;4.00;;;;;17.87;58.24;98890.97;4916692;28;102262;-58
2022/10/30 10:29:22;;;;;;;;;2.00;2.00;;;;;17.87;58.03;98896.44;4917041;28;102289;-58
2022/10/30 10:32:18;;;;;;;;;3.00;2.00;;;;;17.87;58.00;98888.25;4915624;28;108779;-58
2022/10/30 10:35:22;;;;;;;;;4.33;3.00;;;;;17.88;57.90;98889.88;4932430;28;102104;-58
2022/10/30 10:37:52;;;;;;;;;4.00;3.00;;;;;17.89;58.04;98887.97;4916172;28;102031;-57
2022/10/30 10:40:39;;;;;;;;;3.67;3.67;;;;;17.90;58.32;98884.19;4917742;28;102369;-58
2022/10/30 10:43:36;;;;;;;;;4.67;3.67;;;;;17.89;58.14;98869.66;4915021;28;103999;-58
2022/10/30 10:46:54;;;;;;;;;3.00;3.00;;;;;17.91;58.42;98880.38;4916055;28;102048;-58
2022/10/30 10:49:49;;;;;;;;;4.00;4.00;;;;;17.92;57.98;98879.31;4891220;28;102335;-57
2022/10/30 10:52:39;;;;;;;;;3.00;3.00;;;;;17.93;57.79;98878.22;4918752;28;102425;-58
2022/10/30 10:55:30;;;;;;;;;3.00;3.00;;;;;17.94;57.93;98872.50;4910020;28;108625;-57
2022/10/30 10:58:09;;;;;;;;;3.33;3.00;;;;;17.95;58.10;98873.34;4913065;28;104482;-57
2022/10/30 11:00:37;;;;;;;;;4.00;4.00;;;;;17.98;57.83;98867.38;4922668;28;102845;-57
2022/10/30 11:03:19;;;;;;;;;3.67;3.67;;;;;17.99;58.16;98871.78;4918081;28;102191;-57
2022/10/30 11:05:56;;;;;;;;;3.00;2.67;;;;;18.02;58.35;98868.56;4915037;28;108800;-58
2022/10/30 11:08:28;;;;;;;;;5.33;4.00;;;;;18.03;58.21;98868.31;4916221;28;101884;-57
2022/10/30 11:11:00;;;;;;;;;3.67;3.00;;;;;18.03;57.88;98857.38;4915816;28;102289;-57
2022/10/30 11:13:37;;;;;;;;;4.00;4.00;;;;;18.05;58.00;98846.19;4919052;28;102311;-58
2022/10/30 11:16:28;;;;;;;;;5.00;4.67;;;;;18.06;57.48;98850.56;4916259;28;104226;-58
2022/10/30 11:19:01;;;;;;;;;3.67;3.67;;;;;18.07;58.00;98854.97;4915140;28;102249;-58
2022/10/30 11:21:34;;;;;;;;;3.33;3.33;;;;;18.08;58.18;98854.75;4913953;28;102098;-57
2022/10/30 11:24:00;;;;;;;;;1.33;1.00;;;;;18.09;58.23;98850.09;4916053;28;102075;-58
2022/10/30 11:26:31;;;;;;;;;3.33;3.00;;;;;18.10;57.85;98862.72;4915478;28;104851;-58
2022/10/30 11:29:05;;;;;;;;;2.00;2.00;;;;;18.11;58.31;98867.09;4916759;28;102017;-57
2022/10/30 11:31:39;;;;;;;;;2.67;2.67;;;;;18.12;57.70;98866.88;4916570;28;102168;-58
2022/10/30 11:34:18;;;;;;;;;6.00;4.67;;;;;18.13;57.55;98865.81;4916158;28;102215;-57
2022/10/30 11:36:49;;;;;;;;;4.00;4.00;;;;;18.14;57.94;98870.22;4915466;28;108873;-58
2022/10/30 11:39:26;;;;;;;;;3.00;3.00;;;;;18.15;57.55;98865.53;4915626;28;102051;-57
2022/10/30 11:42:13;;;;;;;;;3.33;3.00;;;;;18.16;57.54;98864.47;4913292;28;102325;-58
2022/10/30 11:44:43;;;;;;;;;3.00;3.00;;;;;18.17;57.62;98871.63;4909596;28;102304;-58